sensor_id;sensor_type;location;lat;lon;timestamp;temperature;humidity
5009;DHT22;2523;51.058;6.922;2022-09-30T00:01:15;8.50;99.90
5009;DHT22;2523;51.058;6.922;2022-09-30T00:03:41;8.40;99.90
5009;DHT22;2523;51.058;6.922;2022-09-30T00:06:08;8.40;99.90
5009;DHT22;2523;51.058;6.922;2022-09-30T00:08:34;8.40;99.90
5009;DHT22;2523;51.058;6.922;2022-09-30T00:11:07;8.40;99.90
5009;DHT22;2523;51.058;6.922;2022-09-30T00:13:35;8.30;99.90
5009;DHT22;2523;51.058;6.922;2022-09-30T00:16:02;8.40;99.90
5009;DHT22;2523;51.058;6.922;2022-09-30T00:18:28;8.30;99.90
5009;DHT22;2523;51.058;6.922;2022-09-30T00:20:54;8.30;99.90
5009;DHT22;2523;51.058;6.922;2022-09-30T00:23:20;8.40;99.90
5009;DHT22;2523;51.058;6.922;2022-09-30T00:25:46;8.40;99.90
5009;DHT22;2523;51.058;6.922;2022-09-30T00:28:13;8.40;99.90
5009;DHT22;2523;51.058;6.922;2022-09-30T00:30:38;8.30;99.90
5009;DHT22;2523;51.058;6.922;2022-09-30T00:33:04;8.30;99.90
5009;DHT22;2523;51.058;6.922;2022-09-30T00:35:30;8.30;99.90
5009;DHT22;2523;51.058;6.922;2022-09-30T00:37:55;8.30;99.90
5009;DHT22;2523;51.058;6.922;2022-09-30T00:40:21;8.30;99.90
5009;DHT22;2523;51.058;6.922;2022-09-30T00:42:46;8.20;99.90
5009;DHT22;2523;51.058;6.922;2022-09-30T00:45:12;8.20;99.90
5009;DHT22;2523;51.058;6.922;2022-09-30T00:48:12;8.20;99.90
5009;DHT22;2523;51.058;6.922;2022-09-30T00:53:19;8.10;99.90
5009;DHT22;2523;51.058;6.922;2022-09-30T01:00:54;8.10;99.90
5009;DHT22;2523;51.058;6.922;2022-09-30T01:03:20;8.10;99.90
5009;DHT22;2523;51.058;6.922;2022-09-30T01:05:48;8.00;99.90
5009;DHT22;2523;51.058;6.922;2022-09-30T01:08:15;8.00;99.90
5009;DHT22;2523;51.058;6.922;2022-09-30T01:10:43;8.00;99.90
5009;DHT22;2523;51.058;6.922;2022-09-30T01:13:08;8.00;99.90
5009;DHT22;2523;51.058;6.922;2022-09-30T01:18:41;7.90;99.90
5009;DHT22;2523;51.058;6.922;2022-09-30T01:30:10;7.90;99.90
5009;DHT22;2523;51.058;6.922;2022-09-30T01:38:17;7.90;99.90
5009;DHT22;2523;51.058;6.922;2022-09-30T01:41:05;7.90;99.90
5009;DHT22;2523;51.058;6.922;2022-09-30T01:43:43;7.90;99.90
5009;DHT22;2523;51.058;6.922;2022-09-30T01:48:56;7.90;99.90
5009;DHT22;2523;51.058;6.922;2022-09-30T01:51:50;7.90;99.90
5009;DHT22;2523;51.058;6.922;2022-09-30T01:54:34;7.90;99.90
5009;DHT22;2523;51.058;6.922;2022-09-30T02:00:10;7.90;99.90
5009;DHT22;2523;51.058;6.922;2022-09-30T02:02:47;8.00;99.90
5009;DHT22;2523;51.058;6.922;2022-09-30T02:05:20;8.00;99.90
5009;DHT22;2523;51.058;6.922;2022-09-30T02:07:54;7.90;99.90
5009;DHT22;2523;51.058;6.922;2022-09-30T02:10:32;7.90;99.90
5009;DHT22;2523;51.058;6.922;2022-09-30T02:13:09;7.90;99.90
5009;DHT22;2523;51.058;6.922;2022-09-30T02:15:41;7.90;99.90
5009;DHT22;2523;51.058;6.922;2022-09-30T02:18:16;7.90;99.90
5009;DHT22;2523;51.058;6.922;2022-09-30T02:20:48;7.90;99.90
5009;DHT22;2523;51.058;6.922;2022-09-30T02:23:19;7.90;99.90
5009;DHT22;2523;51.058;6.922;2022-09-30T02:25:58;7.80;99.90
5009;DHT22;2523;51.058;6.922;2022-09-30T02:28:30;7.80;99.90
5009;DHT22;2523;51.058;6.922;2022-09-30T02:30:57;7.80;99.90
5009;DHT22;2523;51.058;6.922;2022-09-30T02:33:31;7.80;99.90
5009;DHT22;2523;51.058;6.922;2022-09-30T02:36:05;7.70;99.90
5009;DHT22;2523;51.058;6.922;2022-09-30T02:38:37;7.60;99.90
5009;DHT22;2523;51.058;6.922;2022-09-30T02:41:14;7.60;99.90
5009;DHT22;2523;51.058;6.922;2022-09-30T02:43:40;7.50;99.90
5009;DHT22;2523;51.058;6.922;2022-09-30T02:46:22;7.50;99.90
5009;DHT22;2523;51.058;6.922;2022-09-30T02:49:05;7.40;99.90
5009;DHT22;2523;51.058;6.922;2022-09-30T02:54:19;7.40;99.90
5009;DHT22;2523;51.058;6.922;2022-09-30T02:59:53;7.30;99.90
5009;DHT22;2523;51.058;6.922;2022-09-30T03:02:19;7.30;99.90
5009;DHT22;2523;51.058;6.922;2022-09-30T03:04:47;7.30;99.90
5009;DHT22;2523;51.058;6.922;2022-09-30T03:07:14;7.30;99.90
5009;DHT22;2523;51.058;6.922;2022-09-30T03:09:39;7.40;99.90
5009;DHT22;2523;51.058;6.922;2022-09-30T03:12:36;7.30;99.90
5009;DHT22;2523;51.058;6.922;2022-09-30T03:15:41;7.40;99.90
5009;DHT22;2523;51.058;6.922;2022-09-30T03:18:36;7.40;99.90
5009;DHT22;2523;51.058;6.922;2022-09-30T03:29:02;7.50;99.90
5009;DHT22;2523;51.058;6.922;2022-09-30T03:42:25;7.50;99.90
5009;DHT22;2523;51.058;6.922;2022-09-30T03:45:01;7.50;99.90
5009;DHT22;2523;51.058;6.922;2022-09-30T03:47:33;7.50;99.90
5009;DHT22;2523;51.058;6.922;2022-09-30T03:50:03;7.50;99.90
5009;DHT22;2523;51.058;6.922;2022-09-30T03:52:31;7.50;99.90
5009;DHT22;2523;51.058;6.922;2022-09-30T03:55:00;7.50;99.90
5009;DHT22;2523;51.058;6.922;2022-09-30T03:57:27;7.50;99.90
5009;DHT22;2523;51.058;6.922;2022-09-30T03:59:54;7.50;99.90
5009;DHT22;2523;51.058;6.922;2022-09-30T04:02:20;7.50;99.90
5009;DHT22;2523;51.058;6.922;2022-09-30T04:04:45;7.50;99.90
5009;DHT22;2523;51.058;6.922;2022-09-30T04:07:11;7.40;99.90
5009;DHT22;2523;51.058;6.922;2022-09-30T04:09:37;7.40;99.90
5009;DHT22;2523;51.058;6.922;2022-09-30T04:12:03;7.40;99.90
5009;DHT22;2523;51.058;6.922;2022-09-30T04:14:30;7.40;99.90
5009;DHT22;2523;51.058;6.922;2022-09-30T04:16:56;7.50;99.90
5009;DHT22;2523;51.058;6.922;2022-09-30T04:19:21;7.40;99.90
5009;DHT22;2523;51.058;6.922;2022-09-30T04:21:47;7.40;99.90
5009;DHT22;2523;51.058;6.922;2022-09-30T04:24:14;7.40;99.90
5009;DHT22;2523;51.058;6.922;2022-09-30T04:26:40;7.40;99.90
5009;DHT22;2523;51.058;6.922;2022-09-30T04:29:05;7.40;99.90
5009;DHT22;2523;51.058;6.922;2022-09-30T04:31:31;7.40;99.90
5009;DHT22;2523;51.058;6.922;2022-09-30T04:33:56;7.20;99.90
5009;DHT22;2523;51.058;6.922;2022-09-30T04:36:22;7.20;99.90
5009;DHT22;2523;51.058;6.922;2022-09-30T04:38:47;7.20;99.90
5009;DHT22;2523;51.058;6.922;2022-09-30T04:41:15;7.20;99.90
5009;DHT22;2523;51.058;6.922;2022-09-30T04:43:42;7.20;99.90
5009;DHT22;2523;51.058;6.922;2022-09-30T04:46:15;7.10;99.90
5009;DHT22;2523;51.058;6.922;2022-09-30T04:48:42;7.10;99.90
5009;DHT22;2523;51.058;6.922;2022-09-30T04:51:11;7.10;99.90
5009;DHT22;2523;51.058;6.922;2022-09-30T04:53:37;7.10;99.90
5009;DHT22;2523;51.058;6.922;2022-09-30T04:56:03;7.10;99.90
5009;DHT22;2523;51.058;6.922;2022-09-30T04:58:29;7.10;99.90
5009;DHT22;2523;51.058;6.922;2022-09-30T05:01:11;7.10;99.90
5009;DHT22;2523;51.058;6.922;2022-09-30T05:03:37;7.00;99.90
5009;DHT22;2523;51.058;6.922;2022-09-30T05:06:03;7.00;99.90
5009;DHT22;2523;51.058;6.922;2022-09-30T05:08:30;7.00;99.90
5009;DHT22;2523;51.058;6.922;2022-09-30T05:11:03;7.00;99.90
5009;DHT22;2523;51.058;6.922;2022-09-30T05:13:31;7.00;99.90
5009;DHT22;2523;51.058;6.922;2022-09-30T05:15:57;7.10;99.90
5009;DHT22;2523;51.058;6.922;2022-09-30T05:18:23;7.10;99.90
5009;DHT22;2523;51.058;6.922;2022-09-30T05:20:51;7.10;99.90
5009;DHT22;2523;51.058;6.922;2022-09-30T05:23:18;7.10;99.90
5009;DHT22;2523;51.058;6.922;2022-09-30T05:25:45;7.20;99.90
5009;DHT22;2523;51.058;6.922;2022-09-30T05:28:11;7.20;99.90
5009;DHT22;2523;51.058;6.922;2022-09-30T05:30:37;7.20;99.90
5009;DHT22;2523;51.058;6.922;2022-09-30T05:33:03;7.20;99.90
5009;DHT22;2523;51.058;6.922;2022-09-30T05:35:28;7.20;99.90
5009;DHT22;2523;51.058;6.922;2022-09-30T05:37:54;7.20;99.90
5009;DHT22;2523;51.058;6.922;2022-09-30T05:40:19;7.20;99.90
5009;DHT22;2523;51.058;6.922;2022-09-30T05:42:45;7.20;99.90
5009;DHT22;2523;51.058;6.922;2022-09-30T05:45:11;7.20;99.90
5009;DHT22;2523;51.058;6.922;2022-09-30T05:47:37;7.20;99.90
5009;DHT22;2523;51.058;6.922;2022-09-30T05:50:04;7.20;99.90
5009;DHT22;2523;51.058;6.922;2022-09-30T05:52:30;7.20;99.90
5009;DHT22;2523;51.058;6.922;2022-09-30T05:54:55;7.20;99.90
5009;DHT22;2523;51.058;6.922;2022-09-30T05:57:26;7.20;99.90
5009;DHT22;2523;51.058;6.922;2022-09-30T05:59:51;7.20;99.90
5009;DHT22;2523;51.058;6.922;2022-09-30T06:02:17;7.30;99.90
5009;DHT22;2523;51.058;6.922;2022-09-30T06:04:42;7.20;99.90
5009;DHT22;2523;51.058;6.922;2022-09-30T06:07:08;7.30;99.90
5009;DHT22;2523;51.058;6.922;2022-09-30T06:09:33;7.30;99.90
5009;DHT22;2523;51.058;6.922;2022-09-30T06:11:59;7.30;99.90
5009;DHT22;2523;51.058;6.922;2022-09-30T06:14:25;7.30;99.90
5009;DHT22;2523;51.058;6.922;2022-09-30T06:16:52;7.30;99.90
5009;DHT22;2523;51.058;6.922;2022-09-30T06:19:18;7.30;99.90
5009;DHT22;2523;51.058;6.922;2022-09-30T06:21:43;7.40;99.90
5009;DHT22;2523;51.058;6.922;2022-09-30T06:24:09;7.40;99.90
5009;DHT22;2523;51.058;6.922;2022-09-30T06:26:38;7.50;99.90
5009;DHT22;2523;51.058;6.922;2022-09-30T06:29:04;7.50;99.90
5009;DHT22;2523;51.058;6.922;2022-09-30T06:31:29;7.60;99.90
5009;DHT22;2523;51.058;6.922;2022-09-30T06:33:56;7.60;99.90
5009;DHT22;2523;51.058;6.922;2022-09-30T06:36:22;7.70;99.90
5009;DHT22;2523;51.058;6.922;2022-09-30T06:38:48;7.70;99.90
5009;DHT22;2523;51.058;6.922;2022-09-30T06:41:16;7.80;99.90
5009;DHT22;2523;51.058;6.922;2022-09-30T06:43:41;7.80;99.90
5009;DHT22;2523;51.058;6.922;2022-09-30T06:46:07;7.80;99.90
5009;DHT22;2523;51.058;6.922;2022-09-30T06:48:33;7.90;99.90
5009;DHT22;2523;51.058;6.922;2022-09-30T06:50:59;7.90;99.90
5009;DHT22;2523;51.058;6.922;2022-09-30T06:53:25;8.00;99.90
5009;DHT22;2523;51.058;6.922;2022-09-30T06:55:58;8.00;99.90
5009;DHT22;2523;51.058;6.922;2022-09-30T06:58:24;8.00;99.90
5009;DHT22;2523;51.058;6.922;2022-09-30T07:03:24;8.00;99.90
5009;DHT22;2523;51.058;6.922;2022-09-30T07:05:56;8.10;99.90
5009;DHT22;2523;51.058;6.922;2022-09-30T07:08:23;8.10;99.90
5009;DHT22;2523;51.058;6.922;2022-09-30T07:10:50;8.20;99.90
5009;DHT22;2523;51.058;6.922;2022-09-30T07:13:17;8.20;99.90
5009;DHT22;2523;51.058;6.922;2022-09-30T07:15:42;8.30;99.90
5009;DHT22;2523;51.058;6.922;2022-09-30T07:18:08;8.30;99.90
5009;DHT22;2523;51.058;6.922;2022-09-30T07:20:33;8.30;99.90
5009;DHT22;2523;51.058;6.922;2022-09-30T07:22:59;8.40;99.90
5009;DHT22;2523;51.058;6.922;2022-09-30T07:25:24;8.40;99.90
5009;DHT22;2523;51.058;6.922;2022-09-30T07:27:50;8.50;99.90
5009;DHT22;2523;51.058;6.922;2022-09-30T07:30:16;8.60;99.90
5009;DHT22;2523;51.058;6.922;2022-09-30T07:32:42;8.70;99.90
5009;DHT22;2523;51.058;6.922;2022-09-30T07:35:08;8.80;99.90
5009;DHT22;2523;51.058;6.922;2022-09-30T07:37:34;8.80;99.90
5009;DHT22;2523;51.058;6.922;2022-09-30T07:40:03;8.90;99.90
5009;DHT22;2523;51.058;6.922;2022-09-30T07:42:29;9.00;99.90
5009;DHT22;2523;51.058;6.922;2022-09-30T07:44:55;9.00;99.90
5009;DHT22;2523;51.058;6.922;2022-09-30T07:47:21;9.10;99.90
5009;DHT22;2523;51.058;6.922;2022-09-30T07:49:47;9.20;99.90
5009;DHT22;2523;51.058;6.922;2022-09-30T07:52:13;9.20;99.90
5009;DHT22;2523;51.058;6.922;2022-09-30T07:54:40;9.30;99.90
5009;DHT22;2523;51.058;6.922;2022-09-30T07:57:06;9.50;99.90
5009;DHT22;2523;51.058;6.922;2022-09-30T07:59:35;9.50;99.90
5009;DHT22;2523;51.058;6.922;2022-09-30T08:02:02;9.50;99.90
5009;DHT22;2523;51.058;6.922;2022-09-30T08:04:28;9.70;99.90
5009;DHT22;2523;51.058;6.922;2022-09-30T08:06:57;9.70;99.90
5009;DHT22;2523;51.058;6.922;2022-09-30T08:09:24;9.80;99.90
5009;DHT22;2523;51.058;6.922;2022-09-30T08:11:50;9.90;99.90
5009;DHT22;2523;51.058;6.922;2022-09-30T08:14:24;10.00;99.90
5009;DHT22;2523;51.058;6.922;2022-09-30T08:16:50;10.10;99.90
5009;DHT22;2523;51.058;6.922;2022-09-30T08:19:21;10.20;99.90
5009;DHT22;2523;51.058;6.922;2022-09-30T08:21:47;10.40;99.90
5009;DHT22;2523;51.058;6.922;2022-09-30T08:24:14;10.40;99.90
5009;DHT22;2523;51.058;6.922;2022-09-30T08:26:40;10.60;99.90
5009;DHT22;2523;51.058;6.922;2022-09-30T08:29:05;10.70;99.90
5009;DHT22;2523;51.058;6.922;2022-09-30T08:31:32;10.90;99.90
5009;DHT22;2523;51.058;6.922;2022-09-30T08:33:58;11.10;99.90
5009;DHT22;2523;51.058;6.922;2022-09-30T08:36:25;11.30;99.90
5009;DHT22;2523;51.058;6.922;2022-09-30T08:38:51;11.40;99.90
5009;DHT22;2523;51.058;6.922;2022-09-30T08:51:59;12.20;99.90
5009;DHT22;2523;51.058;6.922;2022-09-30T08:54:30;12.40;99.90
5009;DHT22;2523;51.058;6.922;2022-09-30T08:56:57;12.50;99.90
5009;DHT22;2523;51.058;6.922;2022-09-30T08:59:36;12.50;99.90
5009;DHT22;2523;51.058;6.922;2022-09-30T09:04:57;12.90;99.90
5009;DHT22;2523;51.058;6.922;2022-09-30T09:16:23;13.60;99.90
5009;DHT22;2523;51.058;6.922;2022-09-30T09:19:18;13.70;99.90
5009;DHT22;2523;51.058;6.922;2022-09-30T09:21:57;14.00;99.90
5009;DHT22;2523;51.058;6.922;2022-09-30T09:24:44;14.20;99.90
5009;DHT22;2523;51.058;6.922;2022-09-30T09:30:13;14.50;99.90
5009;DHT22;2523;51.058;6.922;2022-09-30T09:32:41;14.70;99.90
5009;DHT22;2523;51.058;6.922;2022-09-30T09:35:14;15.20;99.90
5009;DHT22;2523;51.058;6.922;2022-09-30T09:37:50;15.30;99.90
5009;DHT22;2523;51.058;6.922;2022-09-30T09:46:21;15.60;99.90
5009;DHT22;2523;51.058;6.922;2022-09-30T09:54:39;16.70;99.90
5009;DHT22;2523;51.058;6.922;2022-09-30T09:57:19;16.90;99.90
5009;DHT22;2523;51.058;6.922;2022-09-30T10:03:23;17.60;99.90
5009;DHT22;2523;51.058;6.922;2022-09-30T10:06:08;17.80;96.10
5009;DHT22;2523;51.058;6.922;2022-09-30T10:08:56;17.60;89.00
5009;DHT22;2523;51.058;6.922;2022-09-30T10:11:24;18.10;99.90
5009;DHT22;2523;51.058;6.922;2022-09-30T10:13:54;18.20;96.40
5009;DHT22;2523;51.058;6.922;2022-09-30T10:16:35;18.00;82.50
5009;DHT22;2523;51.058;6.922;2022-09-30T10:19:03;18.00;91.50
5009;DHT22;2523;51.058;6.922;2022-09-30T10:21:30;18.30;93.70
5009;DHT22;2523;51.058;6.922;2022-09-30T10:23:56;18.70;90.80
5009;DHT22;2523;51.058;6.922;2022-09-30T10:26:26;18.80;83.60
5009;DHT22;2523;51.058;6.922;2022-09-30T10:28:58;19.30;59.70
5009;DHT22;2523;51.058;6.922;2022-09-30T10:36:39;19.20;60.00
5009;DHT22;2523;51.058;6.922;2022-09-30T10:39:07;19.40;62.80
5009;DHT22;2523;51.058;6.922;2022-09-30T10:41:37;19.70;75.00
5009;DHT22;2523;51.058;6.922;2022-09-30T10:44:06;20.10;51.80
5009;DHT22;2523;51.058;6.922;2022-09-30T10:46:38;19.80;52.90
5009;DHT22;2523;51.058;6.922;2022-09-30T10:51:47;20.40;51.60
5009;DHT22;2523;51.058;6.922;2022-09-30T10:57:01;20.60;44.40
5009;DHT22;2523;51.058;6.922;2022-09-30T10:59:35;20.60;46.00
5009;DHT22;2523;51.058;6.922;2022-09-30T11:04:47;20.70;48.20
5009;DHT22;2523;51.058;6.922;2022-09-30T11:07:32;20.90;46.60
5009;DHT22;2523;51.058;6.922;2022-09-30T11:12:54;21.40;42.00
5009;DHT22;2523;51.058;6.922;2022-09-30T11:15:55;21.60;39.00
5009;DHT22;2523;51.058;6.922;2022-09-30T11:18:25;21.50;37.90
5009;DHT22;2523;51.058;6.922;2022-09-30T11:20:57;21.30;39.10
5009;DHT22;2523;51.058;6.922;2022-09-30T11:23:37;21.20;40.20
5009;DHT22;2523;51.058;6.922;2022-09-30T11:26:12;21.30;37.70
5009;DHT22;2523;51.058;6.922;2022-09-30T11:31:35;22.20;36.20
5009;DHT22;2523;51.058;6.922;2022-09-30T11:34:23;21.40;35.90
5009;DHT22;2523;51.058;6.922;2022-09-30T11:37:02;20.70;41.60
5009;DHT22;2523;51.058;6.922;2022-09-30T11:39:45;21.40;38.40
5009;DHT22;2523;51.058;6.922;2022-09-30T11:43:11;22.00;36.00
5009;DHT22;2523;51.058;6.922;2022-09-30T11:45:30;22.40;34.80
5009;DHT22;2523;51.058;6.922;2022-09-30T11:48:42;22.80;34.20
5009;DHT22;2523;51.058;6.922;2022-09-30T11:51:36;23.80;33.80
5009;DHT22;2523;51.058;6.922;2022-09-30T11:54:28;24.70;32.30
5009;DHT22;2523;51.058;6.922;2022-09-30T12:02:58;24.30;30.80
5009;DHT22;2523;51.058;6.922;2022-09-30T12:05:38;24.20;25.70
5009;DHT22;2523;51.058;6.922;2022-09-30T12:08:33;23.90;27.20
5009;DHT22;2523;51.058;6.922;2022-09-30T12:11:06;22.70;28.90
5009;DHT22;2523;51.058;6.922;2022-09-30T12:13:37;21.40;31.30
5009;DHT22;2523;51.058;6.922;2022-09-30T12:16:10;20.80;35.20
5009;DHT22;2523;51.058;6.922;2022-09-30T12:18:40;22.10;33.20
5009;DHT22;2523;51.058;6.922;2022-09-30T12:21:23;24.10;29.70
5009;DHT22;2523;51.058;6.922;2022-09-30T12:24:04;24.60;25.30
5009;DHT22;2523;51.058;6.922;2022-09-30T12:26:34;23.60;27.90
5009;DHT22;2523;51.058;6.922;2022-09-30T12:29:07;23.20;31.60
5009;DHT22;2523;51.058;6.922;2022-09-30T12:32:11;24.10;29.90
5009;DHT22;2523;51.058;6.922;2022-09-30T12:49:15;27.10;24.00
5009;DHT22;2523;51.058;6.922;2022-09-30T12:51:49;27.40;22.30
5009;DHT22;2523;51.058;6.922;2022-09-30T12:57:18;27.70;19.90
5009;DHT22;2523;51.058;6.922;2022-09-30T12:59:54;27.40;20.60
5009;DHT22;2523;51.058;6.922;2022-09-30T13:02:34;26.60;20.50
5009;DHT22;2523;51.058;6.922;2022-09-30T13:13:23;22.70;25.50
5009;DHT22;2523;51.058;6.922;2022-09-30T13:15:54;22.50;25.80
5009;DHT22;2523;51.058;6.922;2022-09-30T13:21:29;21.90;26.30
5009;DHT22;2523;51.058;6.922;2022-09-30T13:23:50;21.60;27.30
5009;DHT22;2523;51.058;6.922;2022-09-30T13:28:49;20.90;29.10
5009;DHT22;2523;51.058;6.922;2022-09-30T13:31:20;20.60;30.30
5009;DHT22;2523;51.058;6.922;2022-09-30T13:34:02;20.20;28.60
5009;DHT22;2523;51.058;6.922;2022-09-30T13:39:30;19.70;31.40
5009;DHT22;2523;51.058;6.922;2022-09-30T13:42:23;19.40;32.70
5009;DHT22;2523;51.058;6.922;2022-09-30T13:47:29;19.00;33.70
5009;DHT22;2523;51.058;6.922;2022-09-30T13:50:12;18.90;36.20
5009;DHT22;2523;51.058;6.922;2022-09-30T13:52:39;18.80;37.90
5009;DHT22;2523;51.058;6.922;2022-09-30T13:55:23;18.80;37.30
5009;DHT22;2523;51.058;6.922;2022-09-30T14:06:41;18.20;44.00
5009;DHT22;2523;51.058;6.922;2022-09-30T14:17:49;18.30;47.40
5009;DHT22;2523;51.058;6.922;2022-09-30T14:23:15;18.00;44.40
5009;DHT22;2523;51.058;6.922;2022-09-30T14:25:51;17.80;52.10
5009;DHT22;2523;51.058;6.922;2022-09-30T14:28:36;17.80;63.10
5009;DHT22;2523;51.058;6.922;2022-09-30T14:31:04;17.70;77.20
5009;DHT22;2523;51.058;6.922;2022-09-30T14:33:33;17.70;71.40
5009;DHT22;2523;51.058;6.922;2022-09-30T14:36:06;17.70;69.90
5009;DHT22;2523;51.058;6.922;2022-09-30T14:38:35;17.70;70.30
5009;DHT22;2523;51.058;6.922;2022-09-30T14:41:04;17.70;76.30
5009;DHT22;2523;51.058;6.922;2022-09-30T14:43:35;17.70;90.10
5009;DHT22;2523;51.058;6.922;2022-09-30T14:46:05;17.70;95.10
5009;DHT22;2523;51.058;6.922;2022-09-30T14:48:35;17.70;93.50
5009;DHT22;2523;51.058;6.922;2022-09-30T14:51:05;17.60;87.60
5009;DHT22;2523;51.058;6.922;2022-09-30T14:53:40;17.60;83.80
5009;DHT22;2523;51.058;6.922;2022-09-30T14:56:26;17.50;59.70
5009;DHT22;2523;51.058;6.922;2022-09-30T14:58:53;17.40;81.60
5009;DHT22;2523;51.058;6.922;2022-09-30T15:01:22;17.40;70.30
5009;DHT22;2523;51.058;6.922;2022-09-30T15:04:00;17.30;65.90
5009;DHT22;2523;51.058;6.922;2022-09-30T15:06:29;17.20;66.70
5009;DHT22;2523;51.058;6.922;2022-09-30T15:09:13;17.30;80.20
5009;DHT22;2523;51.058;6.922;2022-09-30T15:11:39;17.20;83.30
5009;DHT22;2523;51.058;6.922;2022-09-30T15:14:20;17.10;80.50
5009;DHT22;2523;51.058;6.922;2022-09-30T15:16:54;17.10;95.80
5009;DHT22;2523;51.058;6.922;2022-09-30T15:19:25;17.00;99.90
5009;DHT22;2523;51.058;6.922;2022-09-30T15:21:57;16.90;99.90
5009;DHT22;2523;51.058;6.922;2022-09-30T15:24:29;16.90;99.90
5009;DHT22;2523;51.058;6.922;2022-09-30T15:26:56;16.90;99.90
5009;DHT22;2523;51.058;6.922;2022-09-30T15:29:22;16.80;99.10
5009;DHT22;2523;51.058;6.922;2022-09-30T15:32:02;16.80;99.90
5009;DHT22;2523;51.058;6.922;2022-09-30T15:34:28;16.60;99.90
5009;DHT22;2523;51.058;6.922;2022-09-30T15:36:59;16.60;99.90
5009;DHT22;2523;51.058;6.922;2022-09-30T15:39:33;16.60;99.90
5009;DHT22;2523;51.058;6.922;2022-09-30T15:45:33;16.60;99.90
5009;DHT22;2523;51.058;6.922;2022-09-30T15:48:03;16.50;99.90
5009;DHT22;2523;51.058;6.922;2022-09-30T15:50:45;16.50;99.90
5009;DHT22;2523;51.058;6.922;2022-09-30T15:55:59;16.50;99.90
5009;DHT22;2523;51.058;6.922;2022-09-30T16:01:37;16.50;99.90
5009;DHT22;2523;51.058;6.922;2022-09-30T16:07:21;16.60;99.90
5009;DHT22;2523;51.058;6.922;2022-09-30T16:09:52;16.60;99.90
5009;DHT22;2523;51.058;6.922;2022-09-30T16:12:24;16.50;99.90
5009;DHT22;2523;51.058;6.922;2022-09-30T16:15:10;16.50;99.90
5009;DHT22;2523;51.058;6.922;2022-09-30T16:17:49;16.50;99.90
5009;DHT22;2523;51.058;6.922;2022-09-30T16:27:35;16.20;99.90
5009;DHT22;2523;51.058;6.922;2022-09-30T16:30:02;16.10;99.90
5009;DHT22;2523;51.058;6.922;2022-09-30T16:32:31;16.10;99.90
5009;DHT22;2523;51.058;6.922;2022-09-30T16:34:57;16.00;99.90
5009;DHT22;2523;51.058;6.922;2022-09-30T16:37:24;15.90;99.90
5009;DHT22;2523;51.058;6.922;2022-09-30T16:39:49;15.90;99.90
5009;DHT22;2523;51.058;6.922;2022-09-30T16:42:17;15.80;99.90
5009;DHT22;2523;51.058;6.922;2022-09-30T16:44:43;15.80;99.90
5009;DHT22;2523;51.058;6.922;2022-09-30T16:47:14;15.70;99.90
5009;DHT22;2523;51.058;6.922;2022-09-30T16:49:40;15.60;99.90
5009;DHT22;2523;51.058;6.922;2022-09-30T16:52:08;15.60;99.90
5009;DHT22;2523;51.058;6.922;2022-09-30T16:54:34;15.60;99.90
5009;DHT22;2523;51.058;6.922;2022-09-30T16:56:59;15.50;99.90
5009;DHT22;2523;51.058;6.922;2022-09-30T16:59:25;15.50;99.90
5009;DHT22;2523;51.058;6.922;2022-09-30T17:01:51;15.40;99.90
5009;DHT22;2523;51.058;6.922;2022-09-30T17:04:16;15.30;99.90
5009;DHT22;2523;51.058;6.922;2022-09-30T17:06:42;15.20;99.90
5009;DHT22;2523;51.058;6.922;2022-09-30T17:09:07;15.20;99.90
5009;DHT22;2523;51.058;6.922;2022-09-30T17:11:35;15.10;99.90
5009;DHT22;2523;51.058;6.922;2022-09-30T17:14:02;15.00;99.90
5009;DHT22;2523;51.058;6.922;2022-09-30T17:16:28;15.00;99.90
5009;DHT22;2523;51.058;6.922;2022-09-30T17:18:54;14.90;99.90
5009;DHT22;2523;51.058;6.922;2022-09-30T17:21:24;14.80;99.90
5009;DHT22;2523;51.058;6.922;2022-09-30T17:23:50;14.70;99.90
5009;DHT22;2523;51.058;6.922;2022-09-30T17:26:17;14.70;99.90
5009;DHT22;2523;51.058;6.922;2022-09-30T17:28:43;14.60;99.90
5009;DHT22;2523;51.058;6.922;2022-09-30T17:31:09;14.50;99.90
5009;DHT22;2523;51.058;6.922;2022-09-30T17:33:37;14.40;99.90
5009;DHT22;2523;51.058;6.922;2022-09-30T17:36:05;14.40;99.90
5009;DHT22;2523;51.058;6.922;2022-09-30T17:38:32;14.40;99.90
5009;DHT22;2523;51.058;6.922;2022-09-30T17:40:59;14.40;99.90
5009;DHT22;2523;51.058;6.922;2022-09-30T17:43:43;14.40;99.90
5009;DHT22;2523;51.058;6.922;2022-09-30T17:46:13;14.40;99.90
5009;DHT22;2523;51.058;6.922;2022-09-30T17:48:44;14.40;99.90
5009;DHT22;2523;51.058;6.922;2022-09-30T17:51:11;14.40;99.90
5009;DHT22;2523;51.058;6.922;2022-09-30T17:53:36;14.30;99.90
5009;DHT22;2523;51.058;6.922;2022-09-30T17:58:28;14.20;99.90
5009;DHT22;2523;51.058;6.922;2022-09-30T18:00:54;14.20;99.90
5009;DHT22;2523;51.058;6.922;2022-09-30T18:03:22;14.10;99.90
5009;DHT22;2523;51.058;6.922;2022-09-30T18:05:48;14.00;99.90
5009;DHT22;2523;51.058;6.922;2022-09-30T18:08:14;13.90;99.90
5009;DHT22;2523;51.058;6.922;2022-09-30T18:10:41;13.90;99.90
5009;DHT22;2523;51.058;6.922;2022-09-30T18:13:06;13.80;99.90
5009;DHT22;2523;51.058;6.922;2022-09-30T18:15:32;13.80;99.90
5009;DHT22;2523;51.058;6.922;2022-09-30T18:17:58;13.70;99.90
5009;DHT22;2523;51.058;6.922;2022-09-30T18:20:23;13.70;99.90
5009;DHT22;2523;51.058;6.922;2022-09-30T18:22:49;13.70;99.90
5009;DHT22;2523;51.058;6.922;2022-09-30T18:25:15;13.60;99.90
5009;DHT22;2523;51.058;6.922;2022-09-30T18:27:53;13.60;99.90
5009;DHT22;2523;51.058;6.922;2022-09-30T18:30:21;13.70;99.90
5009;DHT22;2523;51.058;6.922;2022-09-30T18:32:51;13.60;99.90
5009;DHT22;2523;51.058;6.922;2022-09-30T18:35:19;13.60;99.90
5009;DHT22;2523;51.058;6.922;2022-09-30T18:37:46;13.70;99.90
5009;DHT22;2523;51.058;6.922;2022-09-30T18:40:18;13.70;99.90
5009;DHT22;2523;51.058;6.922;2022-09-30T18:42:44;13.70;99.90
5009;DHT22;2523;51.058;6.922;2022-09-30T18:45:11;13.70;99.90
5009;DHT22;2523;51.058;6.922;2022-09-30T18:47:38;13.70;99.90
5009;DHT22;2523;51.058;6.922;2022-09-30T18:50:04;13.70;99.90
5009;DHT22;2523;51.058;6.922;2022-09-30T18:52:30;13.60;99.90
5009;DHT22;2523;51.058;6.922;2022-09-30T18:54:56;13.60;99.90
5009;DHT22;2523;51.058;6.922;2022-09-30T18:57:21;13.60;99.90
5009;DHT22;2523;51.058;6.922;2022-09-30T18:59:47;13.50;99.90
5009;DHT22;2523;51.058;6.922;2022-09-30T19:02:13;13.50;99.90
5009;DHT22;2523;51.058;6.922;2022-09-30T19:04:39;13.50;99.90
5009;DHT22;2523;51.058;6.922;2022-09-30T19:07:04;13.50;99.90
5009;DHT22;2523;51.058;6.922;2022-09-30T19:09:30;13.40;99.90
5009;DHT22;2523;51.058;6.922;2022-09-30T19:11:56;13.30;99.90
5009;DHT22;2523;51.058;6.922;2022-09-30T19:14:21;13.30;99.90
5009;DHT22;2523;51.058;6.922;2022-09-30T19:16:48;13.30;99.90
5009;DHT22;2523;51.058;6.922;2022-09-30T19:19:15;13.20;99.90
5009;DHT22;2523;51.058;6.922;2022-09-30T19:21:42;13.20;99.90
5009;DHT22;2523;51.058;6.922;2022-09-30T19:24:09;13.10;99.90
5009;DHT22;2523;51.058;6.922;2022-09-30T19:26:36;13.00;99.90
5009;DHT22;2523;51.058;6.922;2022-09-30T19:29:03;13.00;99.90
5009;DHT22;2523;51.058;6.922;2022-09-30T19:31:29;13.00;99.90
5009;DHT22;2523;51.058;6.922;2022-09-30T19:33:56;13.00;99.90
5009;DHT22;2523;51.058;6.922;2022-09-30T19:36:23;12.90;99.90
5009;DHT22;2523;51.058;6.922;2022-09-30T19:38:51;12.90;99.90
5009;DHT22;2523;51.058;6.922;2022-09-30T19:41:17;12.90;99.90
5009;DHT22;2523;51.058;6.922;2022-09-30T19:43:43;12.80;99.90
5009;DHT22;2523;51.058;6.922;2022-09-30T19:46:12;12.80;99.90
5009;DHT22;2523;51.058;6.922;2022-09-30T19:48:38;12.80;99.90
5009;DHT22;2523;51.058;6.922;2022-09-30T19:51:06;12.70;99.90
5009;DHT22;2523;51.058;6.922;2022-09-30T19:53:41;12.60;99.90